sensor_id;sensor_type;location;lat;lon;timestamp;pressure;altitude;pressure_sealevel;temperature;humidity
34742;BME280;20968;42.696;23.360;2022-12-13T00:01:30;94681.88;;;2.02;72.12
34742;BME280;20968;42.696;23.360;2022-12-13T00:03:58;94686.22;;;1.87;71.86
34742;BME280;20968;42.696;23.360;2022-12-13T00:06:25;94688.53;;;1.76;72.21
34742;BME280;20968;42.696;23.360;2022-12-13T00:08:50;94691.88;;;1.80;72.19
34742;BME280;20968;42.696;23.360;2022-12-13T00:11:16;94691.53;;;1.91;71.83
34742;BME280;20968;42.696;23.360;2022-12-13T00:13:41;94696.09;;;1.94;72.67
34742;BME280;20968;42.696;23.360;2022-12-13T00:16:12;94698.16;;;2.02;72.77
34742;BME280;20968;42.696;23.360;2022-12-13T00:18:38;94698.81;;;1.94;71.95
34742;BME280;20968;42.696;23.360;2022-12-13T00:21:05;94705.31;;;1.84;71.71
34742;BME280;20968;42.696;23.360;2022-12-13T00:23:31;94702.72;;;1.80;73.06
34742;BME280;20968;42.696;23.360;2022-12-13T00:26:01;94701.09;;;1.83;73.71
34742;BME280;20968;42.696;23.360;2022-12-13T00:28:27;94713.56;;;1.80;72.87
34742;BME280;20968;42.696;23.360;2022-12-13T00:30:56;94713.16;;;1.82;73.01
34742;BME280;20968;42.696;23.360;2022-12-13T00:33:22;94704.91;;;1.73;73.20
34742;BME280;20968;42.696;23.360;2022-12-13T00:35:47;94703.25;;;1.63;73.20
34742;BME280;20968;42.696;23.360;2022-12-13T00:38:13;94704.44;;;1.62;73.00
34742;BME280;20968;42.696;23.360;2022-12-13T00:40:38;94709.56;;;1.72;72.92
34742;BME280;20968;42.696;23.360;2022-12-13T00:43:03;94718.25;;;1.80;72.76
34742;BME280;20968;42.696;23.360;2022-12-13T00:45:29;94719.34;;;1.82;72.69
34742;BME280;20968;42.696;23.360;2022-12-13T00:47:54;94719.53;;;1.75;73.07
34742;BME280;20968;42.696;23.360;2022-12-13T00:50:20;94723.00;;;1.76;72.76
34742;BME280;20968;42.696;23.360;2022-12-13T00:52:45;94726.84;;;1.78;72.42
34742;BME280;20968;42.696;23.360;2022-12-13T00:55:10;94724.66;;;1.86;71.80
34742;BME280;20968;42.696;23.360;2022-12-13T00:57:36;94717.47;;;1.79;71.99
34742;BME280;20968;42.696;23.360;2022-12-13T01:00:03;94709.66;;;1.81;71.93
34742;BME280;20968;42.696;23.360;2022-12-13T01:02:28;94717.91;;;1.78;71.99
34742;BME280;20968;42.696;23.360;2022-12-13T01:04:54;94705.75;;;1.82;71.86
34742;BME280;20968;42.696;23.360;2022-12-13T01:07:19;94714.00;;;1.79;71.41
34742;BME280;20968;42.696;23.360;2022-12-13T01:09:45;94703.03;;;1.70;72.95
34742;BME280;20968;42.696;23.360;2022-12-13T01:12:10;94714.34;;;1.81;73.12
34742;BME280;20968;42.696;23.360;2022-12-13T01:14:38;94720.00;;;1.74;72.73
34742;BME280;20968;42.696;23.360;2022-12-13T01:17:04;94711.97;;;1.70;72.84
34742;BME280;20968;42.696;23.360;2022-12-13T01:19:29;94716.94;;;1.72;73.19
34742;BME280;20968;42.696;23.360;2022-12-13T01:22:03;94718.97;;;1.68;73.41
34742;BME280;20968;42.696;23.360;2022-12-13T01:24:30;94715.88;;;1.82;73.12
34742;BME280;20968;42.696;23.360;2022-12-13T01:26:57;94720.00;;;1.74;72.71
34742;BME280;20968;42.696;23.360;2022-12-13T01:29:23;94722.91;;;1.79;72.44
34742;BME280;20968;42.696;23.360;2022-12-13T01:31:49;94706.84;;;1.72;71.92
34742;BME280;20968;42.696;23.360;2022-12-13T01:34:17;94710.75;;;1.71;71.61
34742;BME280;20968;42.696;23.360;2022-12-13T01:36:44;94717.38;;;1.70;71.74
34742;BME280;20968;42.696;23.360;2022-12-13T01:39:13;94716.94;;;1.72;71.70
34742;BME280;20968;42.696;23.360;2022-12-13T01:41:39;94717.50;;;1.67;70.12
34742;BME280;20968;42.696;23.360;2022-12-13T01:44:06;94714.78;;;1.67;71.04
34742;BME280;20968;42.696;23.360;2022-12-13T01:46:51;94713.47;;;1.59;70.91
34742;BME280;20968;42.696;23.360;2022-12-13T01:49:17;94717.03;;;1.68;71.28
34742;BME280;20968;42.696;23.360;2022-12-13T01:52:00;94716.81;;;1.63;70.60
34742;BME280;20968;42.696;23.360;2022-12-13T01:54:30;94724.41;;;1.55;70.33
34742;BME280;20968;42.696;23.360;2022-12-13T01:56:57;94709.19;;;1.46;70.64
34742;BME280;20968;42.696;23.360;2022-12-13T01:59:23;94720.94;;;1.55;70.45
34742;BME280;20968;42.696;23.360;2022-12-13T02:01:51;94730.78;;;1.49;70.20
34742;BME280;20968;42.696;23.360;2022-12-13T02:04:24;94715.13;;;1.41;71.15
34742;BME280;20968;42.696;23.360;2022-12-13T02:06:53;94719.72;;;1.44;70.87
34742;BME280;20968;42.696;23.360;2022-12-13T02:09:21;94717.63;;;1.35;71.07
34742;BME280;20968;42.696;23.360;2022-12-13T02:11:46;94717.63;;;1.35;71.28
34742;BME280;20968;42.696;23.360;2022-12-13T02:14:13;94713.75;;;1.36;71.60
34742;BME280;20968;42.696;23.360;2022-12-13T02:30:45;94722.97;;;1.10;72.47
34742;BME280;20968;42.696;23.360;2022-12-13T02:33:36;94722.97;;;1.10;72.44
34742;BME280;20968;42.696;23.360;2022-12-13T02:36:08;94723.31;;;1.12;72.75
34742;BME280;20968;42.696;23.360;2022-12-13T02:39:09;94722.44;;;1.15;73.18
34742;BME280;20968;42.696;23.360;2022-12-13T02:41:45;94734.81;;;1.16;72.24
34742;BME280;20968;42.696;23.360;2022-12-13T02:44:33;94745.00;;;1.12;72.55
34742;BME280;20968;42.696;23.360;2022-12-13T02:47:10;94737.28;;;1.11;72.09
34742;BME280;20968;42.696;23.360;2022-12-13T02:49:40;94739.38;;;1.19;71.88
34742;BME280;20968;42.696;23.360;2022-12-13T02:52:09;94738.41;;;1.13;72.81
34742;BME280;20968;42.696;23.360;2022-12-13T02:54:36;94737.19;;;1.14;71.87
34742;BME280;20968;42.696;23.360;2022-12-13T02:57:01;94723.59;;;1.02;71.57
34742;BME280;20968;42.696;23.360;2022-12-13T02:59:33;94728.94;;;1.05;72.15
34742;BME280;20968;42.696;23.360;2022-12-13T03:08:22;94723.47;;;0.93;72.67
34742;BME280;20968;42.696;23.360;2022-12-13T03:13:29;94734.19;;;0.96;73.22
34742;BME280;20968;42.696;23.360;2022-12-13T03:16:32;94748.59;;;0.93;73.74
34742;BME280;20968;42.696;23.360;2022-12-13T03:19:05;94742.78;;;0.95;73.09
34742;BME280;20968;42.696;23.360;2022-12-13T03:21:43;94738.94;;;0.92;73.55
34742;BME280;20968;42.696;23.360;2022-12-13T03:24:09;94730.34;;;0.81;73.37
34742;BME280;20968;42.696;23.360;2022-12-13T03:26:36;94732.56;;;0.71;73.37
34742;BME280;20968;42.696;23.360;2022-12-13T03:29:02;94745.16;;;0.77;73.47
34742;BME280;20968;42.696;23.360;2022-12-13T03:31:28;94746.59;;;0.81;73.79
34742;BME280;20968;42.696;23.360;2022-12-13T03:33:53;94746.41;;;0.88;73.73
34742;BME280;20968;42.696;23.360;2022-12-13T03:36:20;94754.53;;;0.88;73.70
34742;BME280;20968;42.696;23.360;2022-12-13T03:38:46;94755.38;;;0.85;72.66
34742;BME280;20968;42.696;23.360;2022-12-13T03:41:16;94747.97;;;0.74;72.72
34742;BME280;20968;42.696;23.360;2022-12-13T03:43:42;94748.31;;;0.76;72.53
34742;BME280;20968;42.696;23.360;2022-12-13T03:46:08;94752.84;;;0.78;72.61
34742;BME280;20968;42.696;23.360;2022-12-13T03:48:33;94743.81;;;0.69;73.52
34742;BME280;20968;42.696;23.360;2022-12-13T03:50:59;94746.69;;;0.78;72.54
34742;BME280;20968;42.696;23.360;2022-12-13T03:53:25;94760.63;;;0.76;73.10
34742;BME280;20968;42.696;23.360;2022-12-13T03:55:51;94753.81;;;0.72;72.51
34742;BME280;20968;42.696;23.360;2022-12-13T03:58:16;94768.03;;;0.60;72.82
34742;BME280;20968;42.696;23.360;2022-12-13T04:00:42;94773.09;;;0.58;72.33
34742;BME280;20968;42.696;23.360;2022-12-13T04:03:07;94770.47;;;0.55;72.55
34742;BME280;20968;42.696;23.360;2022-12-13T04:05:33;94781.91;;;0.46;73.18
34742;BME280;20968;42.696;23.360;2022-12-13T04:07:58;94778.19;;;0.40;73.05
34742;BME280;20968;42.696;23.360;2022-12-13T04:10:24;94770.16;;;0.37;72.55
34742;BME280;20968;42.696;23.360;2022-12-13T04:12:49;94782.34;;;0.29;73.63
34742;BME280;20968;42.696;23.360;2022-12-13T04:15:34;94780.13;;;0.24;73.35
34742;BME280;20968;42.696;23.360;2022-12-13T04:17:59;94786.72;;;0.23;73.22
34742;BME280;20968;42.696;23.360;2022-12-13T04:20:24;94782.75;;;0.27;73.28
34742;BME280;20968;42.696;23.360;2022-12-13T04:22:50;94795.88;;;0.29;73.34
34742;BME280;20968;42.696;23.360;2022-12-13T04:25:15;94797.88;;;0.25;73.77
34742;BME280;20968;42.696;23.360;2022-12-13T04:27:41;94806.78;;;0.25;74.11
34742;BME280;20968;42.696;23.360;2022-12-13T04:30:07;94808.53;;;0.32;73.38
34742;BME280;20968;42.696;23.360;2022-12-13T04:32:32;94814.31;;;0.34;73.45
34742;BME280;20968;42.696;23.360;2022-12-13T04:34:58;94813.94;;;0.32;72.50
34742;BME280;20968;42.696;23.360;2022-12-13T04:37:23;94825.63;;;0.29;73.22
34742;BME280;20968;42.696;23.360;2022-12-13T04:39:49;94829.88;;;0.30;72.58
34742;BME280;20968;42.696;23.360;2022-12-13T04:42:15;94831.38;;;0.31;72.40
34742;BME280;20968;42.696;23.360;2022-12-13T04:44:41;94827.28;;;0.23;72.78
34742;BME280;20968;42.696;23.360;2022-12-13T04:47:06;94822.41;;;0.18;72.30
34742;BME280;20968;42.696;23.360;2022-12-13T04:49:32;94831.97;;;0.22;72.86
34742;BME280;20968;42.696;23.360;2022-12-13T04:51:58;94836.00;;;0.14;72.72
34742;BME280;20968;42.696;23.360;2022-12-13T04:54:23;94833.53;;;0.04;73.12
34742;BME280;20968;42.696;23.360;2022-12-13T04:56:49;94839.81;;;0.17;72.67
34742;BME280;20968;42.696;23.360;2022-12-13T04:59:15;94840.66;;;0.14;72.97
34742;BME280;20968;42.696;23.360;2022-12-13T05:01:40;94841.69;;;0.20;73.32
34742;BME280;20968;42.696;23.360;2022-12-13T05:04:05;94832.63;;;0.10;72.96
34742;BME280;20968;42.696;23.360;2022-12-13T05:06:31;94839.13;;;0.13;72.86
34742;BME280;20968;42.696;23.360;2022-12-13T05:08:56;94835.72;;;0.09;73.19
34742;BME280;20968;42.696;23.360;2022-12-13T05:11:22;94849.47;;;-0.02;73.39
34742;BME280;20968;42.696;23.360;2022-12-13T05:13:47;94843.41;;;-0.05;73.14
34742;BME280;20968;42.696;23.360;2022-12-13T05:16:12;94843.56;;;-0.12;72.60
34742;BME280;20968;42.696;23.360;2022-12-13T05:18:40;94860.53;;;-0.12;74.20
34742;BME280;20968;42.696;23.360;2022-12-13T05:21:08;94856.28;;;-0.13;73.51
34742;BME280;20968;42.696;23.360;2022-12-13T05:23:35;94855.75;;;-0.04;73.37
34742;BME280;20968;42.696;23.360;2022-12-13T05:26:00;94866.81;;;0.01;73.72
34742;BME280;20968;42.696;23.360;2022-12-13T05:28:27;94859.47;;;0.01;73.44
34742;BME280;20968;42.696;23.360;2022-12-13T05:30:55;94864.75;;;0.08;73.68
34742;BME280;20968;42.696;23.360;2022-12-13T05:33:22;94859.91;;;0.00;73.38
34742;BME280;20968;42.696;23.360;2022-12-13T05:35:48;94875.56;;;0.08;72.62
34742;BME280;20968;42.696;23.360;2022-12-13T05:38:13;94869.38;;;0.08;72.41
34742;BME280;20968;42.696;23.360;2022-12-13T05:40:39;94871.31;;;0.07;72.95
34742;BME280;20968;42.696;23.360;2022-12-13T05:43:04;94873.69;;;0.05;72.09
34742;BME280;20968;42.696;23.360;2022-12-13T05:45:31;94878.41;;;0.01;71.84
34742;BME280;20968;42.696;23.360;2022-12-13T05:47:57;94886.81;;;0.07;73.05
34742;BME280;20968;42.696;23.360;2022-12-13T05:50:23;94887.13;;;0.09;71.93
34742;BME280;20968;42.696;23.360;2022-12-13T05:52:49;94894.50;;;0.08;72.10
34742;BME280;20968;42.696;23.360;2022-12-13T05:55:14;94886.47;;;0.05;72.12
34742;BME280;20968;42.696;23.360;2022-12-13T05:57:39;94895.53;;;0.14;71.63
34742;BME280;20968;42.696;23.360;2022-12-13T06:00:07;94892.75;;;0.18;71.74
34742;BME280;20968;42.696;23.360;2022-12-13T06:02:38;94905.44;;;0.21;70.38
34742;BME280;20968;42.696;23.360;2022-12-13T06:05:04;94908.91;;;0.21;71.09
34742;BME280;20968;42.696;23.360;2022-12-13T06:07:30;94916.47;;;0.30;71.31
34742;BME280;20968;42.696;23.360;2022-12-13T06:09:55;94908.75;;;0.28;70.38
34742;BME280;20968;42.696;23.360;2022-12-13T06:12:21;94904.03;;;0.32;71.19
34742;BME280;20968;42.696;23.360;2022-12-13T06:14:46;94893.41;;;0.41;70.31
34742;BME280;20968;42.696;23.360;2022-12-13T06:17:13;94919.19;;;0.46;68.75
34742;BME280;20968;42.696;23.360;2022-12-13T06:19:38;94912.44;;;0.38;69.47
34742;BME280;20968;42.696;23.360;2022-12-13T06:22:06;94917.00;;;0.41;69.36
34742;BME280;20968;42.696;23.360;2022-12-13T06:24:32;94904.47;;;0.47;69.86
34742;BME280;20968;42.696;23.360;2022-12-13T06:26:57;94900.13;;;0.53;69.82
34742;BME280;20968;42.696;23.360;2022-12-13T06:29:24;94916.13;;;0.63;68.62
34742;BME280;20968;42.696;23.360;2022-12-13T06:31:55;94898.63;;;0.68;69.17
34742;BME280;20968;42.696;23.360;2022-12-13T06:34:21;94915.44;;;0.75;68.28
34742;BME280;20968;42.696;23.360;2022-12-13T06:36:46;94896.81;;;0.61;69.00
34742;BME280;20968;42.696;23.360;2022-12-13T06:39:12;94914.78;;;0.71;67.78
34742;BME280;20968;42.696;23.360;2022-12-13T06:41:38;94919.59;;;0.64;67.86
34742;BME280;20968;42.696;23.360;2022-12-13T06:44:04;94917.47;;;0.55;68.14
34742;BME280;20968;42.696;23.360;2022-12-13T06:46:30;94922.59;;;0.50;68.29
34742;BME280;20968;42.696;23.360;2022-12-13T06:48:56;94935.19;;;0.40;68.75
34742;BME280;20968;42.696;23.360;2022-12-13T06:51:21;94924.09;;;0.35;68.04
34742;BME280;20968;42.696;23.360;2022-12-13T06:53:47;94928.59;;;0.41;69.13
34742;BME280;20968;42.696;23.360;2022-12-13T06:56:13;94925.38;;;0.46;67.97
34742;BME280;20968;42.696;23.360;2022-12-13T06:58:40;94925.38;;;0.46;67.95
34742;BME280;20968;42.696;23.360;2022-12-13T07:01:08;94929.13;;;0.52;68.23
34742;BME280;20968;42.696;23.360;2022-12-13T07:03:34;94931.81;;;0.52;68.00
34742;BME280;20968;42.696;23.360;2022-12-13T07:06:05;94937.31;;;0.49;68.12
34742;BME280;20968;42.696;23.360;2022-12-13T07:08:31;94934.47;;;0.56;67.52
34742;BME280;20968;42.696;23.360;2022-12-13T07:10:56;94937.31;;;0.49;67.34
34742;BME280;20968;42.696;23.360;2022-12-13T07:13:22;94940.19;;;0.42;68.00
34742;BME280;20968;42.696;23.360;2022-12-13T07:15:48;94930.53;;;0.41;67.57
34742;BME280;20968;42.696;23.360;2022-12-13T07:18:14;94940.59;;;0.40;67.96
34742;BME280;20968;42.696;23.360;2022-12-13T07:20:40;94944.22;;;0.34;68.40
34742;BME280;20968;42.696;23.360;2022-12-13T07:23:06;94943.19;;;0.28;67.89
34742;BME280;20968;42.696;23.360;2022-12-13T07:25:31;94946.78;;;0.21;67.69
34742;BME280;20968;42.696;23.360;2022-12-13T07:28:02;94956.44;;;0.22;68.77
34742;BME280;20968;42.696;23.360;2022-12-13T07:30:32;94954.84;;;0.25;69.06
34742;BME280;20968;42.696;23.360;2022-12-13T07:33:00;94952.47;;;0.27;68.14
34742;BME280;20968;42.696;23.360;2022-12-13T07:35:26;94954.47;;;0.23;67.58
34742;BME280;20968;42.696;23.360;2022-12-13T07:37:52;94970.69;;;0.26;68.35
34742;BME280;20968;42.696;23.360;2022-12-13T07:40:17;94955.69;;;0.22;68.13
34742;BME280;20968;42.696;23.360;2022-12-13T07:42:53;94951.59;;;0.14;68.23
34742;BME280;20968;42.696;23.360;2022-12-13T07:45:21;94958.47;;;0.18;68.17
34742;BME280;20968;42.696;23.360;2022-12-13T07:47:47;94949.34;;;0.09;69.05
34742;BME280;20968;42.696;23.360;2022-12-13T07:50:13;94956.31;;;0.10;68.71
34742;BME280;20968;42.696;23.360;2022-12-13T07:52:39;94961.28;;;0.11;68.89
34742;BME280;20968;42.696;23.360;2022-12-13T07:55:05;94967.56;;;0.08;68.71
34742;BME280;20968;42.696;23.360;2022-12-13T07:57:31;94963.81;;;0.02;69.70
34742;BME280;20968;42.696;23.360;2022-12-13T07:59:57;94961.94;;;0.19;68.99
34742;BME280;20968;42.696;23.360;2022-12-13T08:02:23;94973.63;;;0.32;69.30
34742;BME280;20968;42.696;23.360;2022-12-13T08:04:48;94973.50;;;0.39;68.83
34742;BME280;20968;42.696;23.360;2022-12-13T08:07:14;94964.47;;;0.45;68.48
34742;BME280;20968;42.696;23.360;2022-12-13T08:09:39;94971.34;;;0.50;67.53
34742;BME280;20968;42.696;23.360;2022-12-13T08:12:05;94975.44;;;0.58;67.06
34742;BME280;20968;42.696;23.360;2022-12-13T08:14:31;94966.94;;;0.56;67.50
34742;BME280;20968;42.696;23.360;2022-12-13T08:16:56;94967.56;;;0.63;67.14
34742;BME280;20968;42.696;23.360;2022-12-13T08:19:22;94968.00;;;0.77;68.07
34742;BME280;20968;42.696;23.360;2022-12-13T08:21:47;94980.91;;;0.89;66.88
34742;BME280;20968;42.696;23.360;2022-12-13T08:24:13;94976.53;;;0.95;67.63
34742;BME280;20968;42.696;23.360;2022-12-13T08:26:38;94973.63;;;0.86;67.14
34742;BME280;20968;42.696;23.360;2022-12-13T08:29:04;94976.09;;;0.97;67.49
34742;BME280;20968;42.696;23.360;2022-12-13T08:31:30;94981.06;;;0.82;66.96
34742;BME280;20968;42.696;23.360;2022-12-13T08:33:56;94984.06;;;1.04;65.84
34742;BME280;20968;42.696;23.360;2022-12-13T08:36:21;94978.75;;;1.16;65.92
34742;BME280;20968;42.696;23.360;2022-12-13T08:38:49;94951.47;;;1.23;66.12
34742;BME280;20968;42.696;23.360;2022-12-13T08:41:14;94953.59;;;1.32;64.91
34742;BME280;20968;42.696;23.360;2022-12-13T08:43:40;94968.16;;;1.38;64.21
34742;BME280;20968;42.696;23.360;2022-12-13T08:46:05;94959.16;;;1.41;63.97
34742;BME280;20968;42.696;23.360;2022-12-13T08:48:31;94956.69;;;1.46;64.50
34742;BME280;20968;42.696;23.360;2022-12-13T08:51:01;94948.06;;;1.51;64.30
34742;BME280;20968;42.696;23.360;2022-12-13T08:53:27;94951.19;;;1.50;62.84
34742;BME280;20968;42.696;23.360;2022-12-13T08:55:53;94954.59;;;1.53;63.74
34742;BME280;20968;42.696;23.360;2022-12-13T08:58:18;94944.75;;;1.59;62.95
34742;BME280;20968;42.696;23.360;2022-12-13T09:00:44;94933.47;;;1.61;63.47
34742;BME280;20968;42.696;23.360;2022-12-13T09:03:10;94927.94;;;1.64;64.60
34742;BME280;20968;42.696;23.360;2022-12-13T09:05:36;94933.53;;;1.73;63.51
34742;BME280;20968;42.696;23.360;2022-12-13T09:08:02;94936.72;;;1.84;63.22
34742;BME280;20968;42.696;23.360;2022-12-13T09:10:29;94937.00;;;2.02;62.82
34742;BME280;20968;42.696;23.360;2022-12-13T09:12:55;94947.97;;;1.99;59.42
34742;BME280;20968;42.696;23.360;2022-12-13T09:15:29;94936.78;;;1.97;59.76
34742;BME280;20968;42.696;23.360;2022-12-13T09:17:55;94931.69;;;1.99;61.71
34742;BME280;20968;42.696;23.360;2022-12-13T09:20:20;94924.56;;;2.05;62.27
34742;BME280;20968;42.696;23.360;2022-12-13T09:22:46;94930.44;;;2.16;62.09
34742;BME280;20968;42.696;23.360;2022-12-13T09:25:12;94911.19;;;2.10;61.90
34742;BME280;20968;42.696;23.360;2022-12-13T09:27:38;94910.34;;;2.13;62.17
34742;BME280;20968;42.696;23.360;2022-12-13T09:30:04;94906.56;;;2.23;60.66
34742;BME280;20968;42.696;23.360;2022-12-13T09:32:31;94910.91;;;2.33;59.71
34742;BME280;20968;42.696;23.360;2022-12-13T09:34:56;94909.63;;;2.37;60.63
34742;BME280;20968;42.696;23.360;2022-12-13T09:37:22;94914.09;;;2.44;62.40
34742;BME280;20968;42.696;23.360;2022-12-13T09:39:47;94912.16;;;2.57;60.58
34742;BME280;20968;42.696;23.360;2022-12-13T09:42:19;94919.44;;;2.60;58.15
34742;BME280;20968;42.696;23.360;2022-12-13T09:44:51;94905.97;;;2.56;57.39
34742;BME280;20968;42.696;23.360;2022-12-13T09:47:44;94909.47;;;2.69;56.42
34742;BME280;20968;42.696;23.360;2022-12-13T09:50:28;94913.59;;;2.74;56.84
34742;BME280;20968;42.696;23.360;2022-12-13T09:52:55;94899.66;;;2.72;57.60
34742;BME280;20968;42.696;23.360;2022-12-13T09:55:30;94900.91;;;3.42;72.08
34742;BME280;20968;42.696;23.360;2022-12-13T09:57:58;94902.25;;;3.25;56.36
34742;BME280;20968;42.696;23.360;2022-12-13T10:00:33;94912.72;;;3.14;55.67
34742;BME280;20968;42.696;23.360;2022-12-13T10:02:59;94912.25;;;3.15;55.95
34742;BME280;20968;42.696;23.360;2022-12-13T10:05:33;94910.19;;;3.19;56.86
34742;BME280;20968;42.696;23.360;2022-12-13T10:08:14;94901.38;;;3.15;56.07
34742;BME280;20968;42.696;23.360;2022-12-13T10:10:40;94903.47;;;3.11;57.11
34742;BME280;20968;42.696;23.360;2022-12-13T10:13:25;94897.06;;;3.18;57.47
34742;BME280;20968;42.696;23.360;2022-12-13T10:15:59;94888.97;;;3.27;55.97
34742;BME280;20968;42.696;23.360;2022-12-13T10:18:37;94890.69;;;4.74;81.76
34742;BME280;20968;42.696;23.360;2022-12-13T10:21:08;94880.72;;;5.28;75.59
34742;BME280;20968;42.696;23.360;2022-12-13T10:23:35;94880.66;;;6.39;70.78
34742;BME280;20968;42.696;23.360;2022-12-13T10:26:08;94878.25;;;6.23;55.76
34742;BME280;20968;42.696;23.360;2022-12-13T10:28:34;94872.34;;;5.89;51.24
34742;BME280;20968;42.696;23.360;2022-12-13T10:31:00;94864.44;;;5.64;50.31
34742;BME280;20968;42.696;23.360;2022-12-13T10:33:29;94850.59;;;5.40;51.13
34742;BME280;20968;42.696;23.360;2022-12-13T10:38:43;94849.34;;;5.33;52.67
34742;BME280;20968;42.696;23.360;2022-12-13T10:41:28;94858.00;;;5.31;51.10
34742;BME280;20968;42.696;23.360;2022-12-13T10:47:02;94844.91;;;5.08;53.52
34742;BME280;20968;42.696;23.360;2022-12-13T10:49:55;94844.00;;;5.02;52.60
34742;BME280;20968;42.696;23.360;2022-12-13T10:54:57;94824.97;;;4.81;53.80
34742;BME280;20968;42.696;23.360;2022-12-13T10:57:24;94828.56;;;4.69;52.40
34742;BME280;20968;42.696;23.360;2022-12-13T10:59:50;94832.19;;;4.66;53.59
34742;BME280;20968;42.696;23.360;2022-12-13T11:02:57;94823.69;;;4.64;52.80
34742;BME280;20968;42.696;23.360;2022-12-13T11:05:28;94833.88;;;4.72;53.37
34742;BME280;20968;42.696;23.360;2022-12-13T11:07:54;94812.34;;;4.65;52.65
34742;BME280;20968;42.696;23.360;2022-12-13T11:10:23;94819.94;;;4.70;53.42
34742;BME280;20968;42.696;23.360;2022-12-13T11:12:49;94824.00;;;4.66;52.26
34742;BME280;20968;42.696;23.360;2022-12-13T11:15:22;94818.28;;;4.73;52.46
34742;BME280;20968;42.696;23.360;2022-12-13T11:17:54;94811.44;;;5.08;53.06
34742;BME280;20968;42.696;23.360;2022-12-13T11:20:24;94811.94;;;5.42;52.69
34742;BME280;20968;42.696;23.360;2022-12-13T11:23:00;94810.41;;;5.59;52.77
34742;BME280;20968;42.696;23.360;2022-12-13T11:25:36;94805.56;;;5.99;52.09
34742;BME280;20968;42.696;23.360;2022-12-13T11:33:59;94799.16;;;7.25;49.61
34742;BME280;20968;42.696;23.360;2022-12-13T11:47:24;94809.47;;;8.29;45.54
34742;BME280;20968;42.696;23.360;2022-12-13T11:49:52;94803.22;;;8.29;46.53
34742;BME280;20968;42.696;23.360;2022-12-13T11:52:23;94807.38;;;8.39;44.81
34742;BME280;20968;42.696;23.360;2022-12-13T11:57:36;94800.94;;;8.70;45.05
34742;BME280;20968;42.696;23.360;2022-12-13T12:00:16;94783.16;;;8.80;43.59
34742;BME280;20968;42.696;23.360;2022-12-13T12:02:49;94799.03;;;8.76;42.81
34742;BME280;20968;42.696;23.360;2022-12-13T12:05:30;94799.41;;;8.84;43.71
34742;BME280;20968;42.696;23.360;2022-12-13T12:08:04;94783.16;;;8.80;46.30
34742;BME280;20968;42.696;23.360;2022-12-13T12:10:41;94778.41;;;8.81;45.93
34742;BME280;20968;42.696;23.360;2022-12-13T12:13:18;94774.56;;;8.93;46.04
34742;BME280;20968;42.696;23.360;2022-12-13T12:18:16;94789.75;;;8.88;47.23
34742;BME280;20968;42.696;23.360;2022-12-13T12:26:07;94777.09;;;9.30;45.89
34742;BME280;20968;42.696;23.360;2022-12-13T12:41:43;94793.47;;;9.05;43.24
34742;BME280;20968;42.696;23.360;2022-12-13T12:58:14;94807.09;;;7.23;46.31
34742;BME280;20968;42.696;23.360;2022-12-13T13:03:28;94807.19;;;6.73;47.92
34742;BME280;20968;42.696;23.360;2022-12-13T13:05:56;94815.16;;;6.53;48.78
34742;BME280;20968;42.696;23.360;2022-12-13T13:10:49;94818.09;;;6.41;50.35
34742;BME280;20968;42.696;23.360;2022-12-13T13:18:56;94837.28;;;5.87;49.02
34742;BME280;20968;42.696;23.360;2022-12-13T13:24:15;94841.06;;;5.63;51.38
34742;BME280;20968;42.696;23.360;2022-12-13T13:26:59;94859.13;;;5.60;52.06
34742;BME280;20968;42.696;23.360;2022-12-13T13:29:43;94860.47;;;5.56;51.56
34742;BME280;20968;42.696;23.360;2022-12-13T13:34:48;94859.69;;;5.38;53.60
34742;BME280;20968;42.696;23.360;2022-12-13T13:40:00;94868.16;;;5.22;54.21
34742;BME280;20968;42.696;23.360;2022-12-13T13:42:30;94857.81;;;5.17;54.65
34742;BME280;20968;42.696;23.360;2022-12-13T13:47:42;94852.97;;;5.21;55.12
34742;BME280;20968;42.696;23.360;2022-12-13T13:55:46;94850.56;;;5.32;55.96
34742;BME280;20968;42.696;23.360;2022-12-13T13:58:30;94838.44;;;5.33;55.42
34742;BME280;20968;42.696;23.360;2022-12-13T14:01:43;94823.88;;;5.27;55.55
34742;BME280;20968;42.696;23.360;2022-12-13T14:07:36;94837.66;;;5.23;55.79
34742;BME280;20968;42.696;23.360;2022-12-13T14:10:36;94832.34;;;5.20;56.50
34742;BME280;20968;42.696;23.360;2022-12-13T14:15:52;94819.59;;;5.17;56.44
34742;BME280;20968;42.696;23.360;2022-12-13T14:21:45;94818.09;;;5.07;57.66
34742;BME280;20968;42.696;23.360;2022-12-13T14:29:41;94823.06;;;4.99;58.83
34742;BME280;20968;42.696;23.360;2022-12-13T14:32:28;94824.25;;;4.98;59.80
34742;BME280;20968;42.696;23.360;2022-12-13T14:34:58;94818.50;;;4.87;60.42
34742;BME280;20968;42.696;23.360;2022-12-13T14:37:25;94807.41;;;4.82;59.74
34742;BME280;20968;42.696;23.360;2022-12-13T14:39:52;94808.28;;;4.70;60.77
34742;BME280;20968;42.696;23.360;2022-12-13T14:42:26;94804.31;;;4.71;60.53
34742;BME280;20968;42.696;23.360;2022-12-13T14:44:55;94799.34;;;4.69;60.75
34742;BME280;20968;42.696;23.360;2022-12-13T14:47:20;94807.34;;;4.64;60.92
34742;BME280;20968;42.696;23.360;2022-12-13T14:49:52;94810.56;;;4.71;60.68
34742;BME280;20968;42.696;23.360;2022-12-13T14:52:26;94820.69;;;4.62;61.09
34742;BME280;20968;42.696;23.360;2022-12-13T14:54:58;94823.22;;;4.57;60.50
34742;BME280;20968;42.696;23.360;2022-12-13T14:57:27;94832.28;;;4.54;60.43
34742;BME280;20968;42.696;23.360;2022-12-13T14:59:56;94826.97;;;4.50;61.28
34742;BME280;20968;42.696;23.360;2022-12-13T15:02:25;94825.91;;;4.48;60.91
34742;BME280;20968;42.696;23.360;2022-12-13T15:04:59;94835.59;;;4.49;61.81
34742;BME280;20968;42.696;23.360;2022-12-13T15:07:34;94835.72;;;4.45;61.61
34742;BME280;20968;42.696;23.360;2022-12-13T15:10:16;94849.69;;;4.47;61.44
34742;BME280;20968;42.696;23.360;2022-12-13T15:12:44;94854.34;;;4.47;61.12
34742;BME280;20968;42.696;23.360;2022-12-13T15:15:19;94852.66;;;4.40;61.71
34742;BME280;20968;42.696;23.360;2022-12-13T15:17:46;94851.28;;;4.36;61.31